createdAt,value
2023-01-17T00:01:50.991Z,5.43
2023-01-17T00:04:36.111Z,4.00
2023-01-17T00:07:21.365Z,8.10
2023-01-17T00:09:57.102Z,3.30
2023-01-17T00:12:25.859Z,6.40
2023-01-17T00:14:54.655Z,5.47
2023-01-17T00:17:22.597Z,9.23
2023-01-17T00:20:08.374Z,3.00
2023-01-17T00:22:54.132Z,6.57
2023-01-17T00:25:42.259Z,4.90
2023-01-17T00:28:09.019Z,3.53
2023-01-17T00:30:36.044Z,4.50
2023-01-17T00:33:02.746Z,3.73
2023-01-17T00:35:31.174Z,6.27
2023-01-17T00:38:19.745Z,3.93
2023-01-17T00:40:48.211Z,4.67
2023-01-17T00:43:34.352Z,4.60
2023-01-17T00:46:19.810Z,3.10
2023-01-17T00:49:05.288Z,4.00
2023-01-17T00:51:52.564Z,5.00
2023-01-17T00:54:37.877Z,9.50
2023-01-17T00:57:25.115Z,4.23
2023-01-17T01:00:10.378Z,4.00
2023-01-17T01:02:56.628Z,6.23
2023-01-17T01:05:42.031Z,5.60
2023-01-17T01:08:38.306Z,4.67
2023-01-17T01:11:24.505Z,5.50
2023-01-17T01:14:11.527Z,5.33
2023-01-17T01:16:56.714Z,5.40
2023-01-17T01:19:41.942Z,3.83
2023-01-17T01:22:29.589Z,7.80
2023-01-17T01:25:15.160Z,5.43
2023-01-17T01:28:01.006Z,6.70
2023-01-17T01:30:48.086Z,5.40
2023-01-17T01:33:21.077Z,5.20
2023-01-17T01:35:50.383Z,4.80
2023-01-17T01:38:18.794Z,6.40
2023-01-17T01:40:49.182Z,5.17
2023-01-17T01:43:18.187Z,4.50
2023-01-17T01:45:49.735Z,5.33
2023-01-17T01:48:24.418Z,5.33
2023-01-17T01:50:52.705Z,7.93
2023-01-17T01:53:21.641Z,3.90
2023-01-17T01:55:50.423Z,5.77
2023-01-17T01:58:37.916Z,4.60
2023-01-17T02:01:09.098Z,3.93
2023-01-17T02:03:37.358Z,4.40
2023-01-17T02:06:08.051Z,7.07
2023-01-17T02:08:36.428Z,5.63
2023-01-17T02:11:04.140Z,5.00
2023-01-17T02:13:31.821Z,9.80
2023-01-17T02:16:02.710Z,6.30
2023-01-17T02:18:36.861Z,4.20
2023-01-17T02:21:11.386Z,5.97
2023-01-17T02:23:49.015Z,8.57
2023-01-17T02:26:35.660Z,5.40
2023-01-17T02:29:12.643Z,6.03
2023-01-17T02:31:44.925Z,5.83
2023-01-17T02:34:17.293Z,15.50
2023-01-17T02:36:46.997Z,8.90
2023-01-17T02:39:18.251Z,7.47
2023-01-17T02:41:47.873Z,7.63
2023-01-17T02:44:17.102Z,5.07
2023-01-17T02:46:47.932Z,10.20
2023-01-17T02:49:16.699Z,5.70
2023-01-17T02:51:52.290Z,6.87
2023-01-17T02:54:29.293Z,8.37
2023-01-17T02:57:06.518Z,5.90
2023-01-17T02:59:38.721Z,4.17
2023-01-17T03:02:15.742Z,6.37
2023-01-17T03:04:48.133Z,7.63
2023-01-17T03:07:17.690Z,7.90
2023-01-17T03:09:46.388Z,11.97
2023-01-17T03:12:14.281Z,5.97
2023-01-17T03:14:41.962Z,8.10
2023-01-17T03:17:11.038Z,7.13
2023-01-17T03:19:38.711Z,11.70
2023-01-17T03:22:06.552Z,10.77
2023-01-17T03:24:34.204Z,8.97
2023-01-17T03:27:01.963Z,7.97
2023-01-17T03:29:29.579Z,7.70
2023-01-17T03:31:58.223Z,6.07
2023-01-17T03:34:27.155Z,18.67
2023-01-17T03:36:54.930Z,13.10
2023-01-17T03:39:22.604Z,8.37
2023-01-17T03:41:50.310Z,6.30
2023-01-17T03:44:19.276Z,9.40
2023-01-17T03:46:46.860Z,7.10
2023-01-17T03:49:15.260Z,10.70
2023-01-17T03:51:44.184Z,11.90
2023-01-17T03:54:11.992Z,8.07
2023-01-17T03:56:39.822Z,9.60
2023-01-17T03:59:07.559Z,7.87
2023-01-17T04:01:35.328Z,4.23
2023-01-17T04:04:03.703Z,7.20
2023-01-17T04:06:31.564Z,5.00
2023-01-17T04:09:00.689Z,8.53
2023-01-17T04:11:28.364Z,4.37
2023-01-17T04:13:56.218Z,2.90
2023-01-17T04:16:27.335Z,4.43
2023-01-17T04:18:55.163Z,5.20
2023-01-17T04:21:22.947Z,5.30
2023-01-17T04:23:50.815Z,2.60
2023-01-17T04:26:19.939Z,9.17
2023-01-17T04:28:47.576Z,9.53
2023-01-17T04:31:16.717Z,3.90
2023-01-17T04:33:45.194Z,2.40
2023-01-17T04:36:12.897Z,3.70
2023-01-17T04:38:40.600Z,9.43
2023-01-17T04:41:08.642Z,4.67
2023-01-17T04:43:37.797Z,3.63
2023-01-17T04:46:10.159Z,3.93
2023-01-17T04:48:38.243Z,1.90
2023-01-17T04:51:06.992Z,12.17
2023-01-17T04:53:35.727Z,1.97
2023-01-17T04:56:03.650Z,2.30
2023-01-17T04:58:31.602Z,5.03
2023-01-17T05:01:04.069Z,2.43
2023-01-17T05:03:32.226Z,2.50
2023-01-17T05:05:59.884Z,2.13
2023-01-17T05:08:28.144Z,3.57
2023-01-17T05:10:55.769Z,1.93
2023-01-17T05:13:23.514Z,3.30
2023-01-17T05:15:51.568Z,4.13
2023-01-17T05:18:20.603Z,3.30
2023-01-17T05:20:48.236Z,4.33
2023-01-17T05:23:15.997Z,3.00
2023-01-17T05:25:44.282Z,3.77
2023-01-17T05:28:12.525Z,25.93
2023-01-17T05:30:40.568Z,11.33
2023-01-17T05:33:10.071Z,3.10
2023-01-17T05:35:41.403Z,6.63
2023-01-17T05:38:09.226Z,2.80
2023-01-17T05:40:36.941Z,3.60
2023-01-17T05:43:05.127Z,2.43
2023-01-17T05:45:33.333Z,3.53
2023-01-17T05:48:01.353Z,4.53
2023-01-17T05:50:30.289Z,2.13
2023-01-17T05:53:00.030Z,3.33
2023-01-17T05:55:29.914Z,2.67
2023-01-17T05:57:59.391Z,2.80
2023-01-17T06:00:27.255Z,2.40
2023-01-17T06:02:55.412Z,4.97
2023-01-17T06:05:25.713Z,2.43
2023-01-17T06:07:53.665Z,5.07
2023-01-17T06:10:23.308Z,3.17
2023-01-17T06:12:51.327Z,2.63
2023-01-17T06:15:19.156Z,3.97
2023-01-17T06:17:46.858Z,2.50
2023-01-17T06:20:14.804Z,4.30
2023-01-17T06:22:42.588Z,3.33
2023-01-17T06:25:10.805Z,5.43
2023-01-17T06:27:40.560Z,2.70
2023-01-17T06:30:08.750Z,3.97
2023-01-17T06:32:36.720Z,3.00
2023-01-17T06:35:04.670Z,4.43
2023-01-17T06:37:32.394Z,3.30
2023-01-17T06:40:00.036Z,3.60
2023-01-17T06:42:27.788Z,3.90
2023-01-17T06:44:56.903Z,2.87
2023-01-17T06:47:24.664Z,3.80
2023-01-17T06:49:52.331Z,3.50
2023-01-17T06:52:20.327Z,4.20
2023-01-17T06:54:47.980Z,4.03
2023-01-17T06:57:15.899Z,4.87
2023-01-17T06:59:43.475Z,3.83
2023-01-17T07:02:13.215Z,6.27
2023-01-17T07:04:40.917Z,4.20
2023-01-17T07:07:08.786Z,3.90
2023-01-17T07:09:36.592Z,7.97
2023-01-17T07:12:04.291Z,5.17
2023-01-17T07:14:32.892Z,3.00
2023-01-17T07:17:00.528Z,3.40
2023-01-17T07:19:29.802Z,4.53
2023-01-17T07:21:57.712Z,3.40
2023-01-17T07:24:25.612Z,6.60
2023-01-17T07:26:53.185Z,3.50
2023-01-17T07:29:21.382Z,4.07
2023-01-17T07:31:49.466Z,3.40
2023-01-17T07:34:17.587Z,2.90
2023-01-17T07:36:48.770Z,2.77
2023-01-17T07:39:17.579Z,5.00
2023-01-17T07:41:45.208Z,6.67
2023-01-17T07:44:13.110Z,3.53
2023-01-17T07:46:40.981Z,3.50
2023-01-17T07:49:08.792Z,3.90
2023-01-17T07:51:36.527Z,5.27
2023-01-17T07:54:05.465Z,3.87
2023-01-17T07:56:34.559Z,4.60
2023-01-17T07:59:02.464Z,5.03
2023-01-17T08:01:30.221Z,4.00
2023-01-17T08:03:58.046Z,7.73
2023-01-17T08:06:27.579Z,6.00
2023-01-17T08:08:57.051Z,5.03
2023-01-17T08:11:26.111Z,3.90
2023-01-17T08:13:57.360Z,4.00
2023-01-17T08:16:25.556Z,6.60
2023-01-17T08:18:53.463Z,3.80
2023-01-17T08:21:23.427Z,3.20
2023-01-17T08:23:51.420Z,3.37
2023-01-17T08:26:22.554Z,3.37
2023-01-17T08:28:55.015Z,4.40
2023-01-17T08:31:23.278Z,3.93
2023-01-17T08:33:50.887Z,3.10
2023-01-17T08:36:18.554Z,4.63
2023-01-17T08:38:46.509Z,2.93
2023-01-17T08:41:14.250Z,4.80
2023-01-17T08:43:42.001Z,3.00
2023-01-17T08:46:11.088Z,3.70
2023-01-17T08:48:39.030Z,3.50
2023-01-17T08:51:07.257Z,4.30
2023-01-17T08:53:35.072Z,3.27
2023-01-17T08:56:03.604Z,3.67
2023-01-17T08:58:32.046Z,4.50
2023-01-17T09:01:01.527Z,3.30
2023-01-17T09:03:30.996Z,3.80
2023-01-17T09:06:02.557Z,2.80
2023-01-17T09:08:31.463Z,2.70
2023-01-17T09:10:59.344Z,3.57
2023-01-17T09:13:27.062Z,2.50
2023-01-17T09:15:57.356Z,4.23
2023-01-17T09:18:25.999Z,4.83
2023-01-17T09:20:55.361Z,3.30
2023-01-17T09:23:23.110Z,3.50
2023-01-17T09:25:54.062Z,4.07
2023-01-17T09:28:21.854Z,5.80
2023-01-17T09:30:49.875Z,2.33
2023-01-17T09:33:17.741Z,1.37
2023-01-17T09:35:45.951Z,2.90
2023-01-17T09:38:14.945Z,3.57
2023-01-17T09:40:45.481Z,1.87
2023-01-17T09:43:19.340Z,17.43
2023-01-17T09:45:47.295Z,5.50
2023-01-17T09:48:17.775Z,14.30
2023-01-17T09:50:49.045Z,1.90
2023-01-17T09:53:20.812Z,11.23
2023-01-17T09:55:54.831Z,5.53
2023-01-17T09:58:25.556Z,42.97
2023-01-17T10:00:58.198Z,7.50
2023-01-17T10:03:47.197Z,6.20
2023-01-17T10:06:31.754Z,3.83
2023-01-17T10:09:07.970Z,4.37
2023-01-17T10:11:40.366Z,6.73
2023-01-17T10:14:21.051Z,5.93
2023-01-17T10:17:17.536Z,3.33
2023-01-17T10:19:49.988Z,4.60
2023-01-17T10:22:31.369Z,1.70
2023-01-17T10:25:08.125Z,1.93
2023-01-17T10:27:38.714Z,1.93
2023-01-17T10:30:14.596Z,1.80
2023-01-17T10:32:47.314Z,3.57
2023-01-17T10:35:19.123Z,3.63
2023-01-17T10:37:48.699Z,2.13
2023-01-17T10:40:20.613Z,5.83
2023-01-17T10:42:53.343Z,2.33
2023-01-17T10:45:25.550Z,1.40
2023-01-17T10:47:59.352Z,2.47
2023-01-17T10:50:28.813Z,3.20
2023-01-17T10:53:01.089Z,3.17
2023-01-17T10:55:34.158Z,2.50
2023-01-17T10:58:02.641Z,2.00
2023-01-17T11:00:34.895Z,1.93
2023-01-17T11:03:03.596Z,2.40
2023-01-17T11:05:32.681Z,3.23
2023-01-17T11:08:01.843Z,2.37
2023-01-17T11:10:40.095Z,2.90
2023-01-17T11:13:19.824Z,1.50
2023-01-17T11:15:49.343Z,1.37
2023-01-17T11:18:17.918Z,3.57
2023-01-17T11:20:45.920Z,2.00
2023-01-17T11:23:15.749Z,2.67
2023-01-17T11:25:50.781Z,2.93
2023-01-17T11:28:26.202Z,1.47
2023-01-17T11:30:57.245Z,2.50
2023-01-17T11:33:53.857Z,3.10
2023-01-17T11:36:22.994Z,2.87
2023-01-17T11:39:02.708Z,2.67
2023-01-17T11:41:35.496Z,2.90
2023-01-17T11:44:04.013Z,2.60
2023-01-17T11:46:32.167Z,5.73
2023-01-17T11:49:00.809Z,3.07
2023-01-17T11:51:30.405Z,4.93
2023-01-17T11:54:08.130Z,3.83
2023-01-17T11:56:38.088Z,2.80
2023-01-17T11:59:09.820Z,2.40
2023-01-17T12:01:41.664Z,4.10
2023-01-17T12:04:15.171Z,3.10
2023-01-17T12:06:57.650Z,4.97
2023-01-17T12:09:32.574Z,4.50
2023-01-17T12:12:23.279Z,9.03
2023-01-17T12:14:59.103Z,6.90
2023-01-17T12:17:32.701Z,10.53
2023-01-17T12:20:04.802Z,13.60
2023-01-17T12:22:47.678Z,9.10
2023-01-17T12:25:23.962Z,9.73
2023-01-17T12:27:58.122Z,9.43
2023-01-17T12:30:30.644Z,5.40
2023-01-17T12:33:03.920Z,7.80
2023-01-17T12:35:38.472Z,7.77
2023-01-17T12:38:14.054Z,7.90
2023-01-17T12:40:50.534Z,7.73
2023-01-17T12:43:22.945Z,8.73
2023-01-17T12:45:51.160Z,6.20
2023-01-17T12:48:20.178Z,7.03
2023-01-17T12:50:51.854Z,6.23
2023-01-17T12:53:25.168Z,4.50
2023-01-17T12:55:55.697Z,4.90
2023-01-17T12:58:25.806Z,4.00
2023-01-17T13:00:59.055Z,4.40
2023-01-17T13:03:30.730Z,5.63
2023-01-17T13:05:59.067Z,7.20
2023-01-17T13:08:29.710Z,5.80
2023-01-17T13:11:01.107Z,6.10
2023-01-17T13:13:31.043Z,6.23
2023-01-17T13:16:02.171Z,8.00
2023-01-17T13:18:33.143Z,6.70
2023-01-17T13:21:09.437Z,4.10
2023-01-17T13:23:55.807Z,5.73
2023-01-17T13:26:31.058Z,7.23
2023-01-17T13:29:06.087Z,5.00
2023-01-17T13:31:41.258Z,5.80
2023-01-17T13:34:35.074Z,8.80
2023-01-17T13:37:15.312Z,4.37
2023-01-17T13:39:57.897Z,3.60
2023-01-17T13:42:29.067Z,5.70
2023-01-17T13:44:58.952Z,10.60
2023-01-17T13:47:41.564Z,10.07
2023-01-17T13:50:42.706Z,9.90
2023-01-17T13:53:31.517Z,8.20
2023-01-17T13:56:00.862Z,3.87
2023-01-17T13:58:29.413Z,11.63
2023-01-17T14:00:58.513Z,4.93
2023-01-17T14:03:41.209Z,5.33
2023-01-17T14:06:26.336Z,5.00
2023-01-17T14:08:54.507Z,6.37
2023-01-17T14:11:22.244Z,8.30
2023-01-17T14:13:51.985Z,10.03
2023-01-17T14:16:29.141Z,8.40
2023-01-17T14:18:57.460Z,5.23
2023-01-17T14:21:26.257Z,5.40
2023-01-17T14:23:57.319Z,5.17
2023-01-17T14:26:34.191Z,7.17
2023-01-17T14:29:16.782Z,6.87
2023-01-17T14:31:46.577Z,6.37
2023-01-17T14:34:14.977Z,14.73
2023-01-17T14:36:42.763Z,6.27
2023-01-17T14:39:21.512Z,10.17
2023-01-17T14:41:49.352Z,9.77
2023-01-17T14:44:17.941Z,6.20
2023-01-17T14:46:49.188Z,7.70
2023-01-17T14:49:21.389Z,8.67
2023-01-17T14:51:59.658Z,8.60
2023-01-17T14:54:27.612Z,9.50
2023-01-17T14:57:10.535Z,6.30
2023-01-17T14:59:38.281Z,5.27
2023-01-17T15:02:15.198Z,7.93
2023-01-17T15:04:43.124Z,4.23
2023-01-17T15:07:15.552Z,7.17
2023-01-17T15:09:43.716Z,25.00
2023-01-17T15:12:13.745Z,11.23
2023-01-17T15:14:44.874Z,10.23
2023-01-17T15:17:18.107Z,7.23
2023-01-17T15:19:48.006Z,11.93
2023-01-17T15:22:15.871Z,6.30
2023-01-17T15:24:44.633Z,11.80
2023-01-17T15:27:13.923Z,11.77
2023-01-17T15:29:41.972Z,12.63
2023-01-17T15:32:16.903Z,12.17
2023-01-17T15:34:45.491Z,16.43
2023-01-17T15:37:23.285Z,14.47
2023-01-17T15:39:51.046Z,11.40
2023-01-17T15:42:22.852Z,6.60
2023-01-17T15:44:53.595Z,12.80
2023-01-17T15:47:28.202Z,11.73
2023-01-17T15:49:56.065Z,10.40
2023-01-17T15:52:24.041Z,19.07
2023-01-17T15:54:54.728Z,15.57
2023-01-17T15:57:27.224Z,9.50
2023-01-17T15:59:56.220Z,8.60
2023-01-17T16:02:25.674Z,9.30
2023-01-17T16:04:55.499Z,10.63
2023-01-17T16:07:23.956Z,12.67
2023-01-17T16:09:51.686Z,10.07
2023-01-17T16:12:19.319Z,7.63
2023-01-17T16:15:06.319Z,15.50
2023-01-17T16:17:36.286Z,14.80
2023-01-17T16:20:06.931Z,12.63
2023-01-17T16:22:34.713Z,9.23
2023-01-17T16:25:02.601Z,8.63
2023-01-17T16:27:31.286Z,7.93
2023-01-17T16:29:59.277Z,9.03
2023-01-17T16:32:28.132Z,14.00
2023-01-17T16:34:56.063Z,11.60
2023-01-17T16:37:25.539Z,10.90
2023-01-17T16:39:53.398Z,14.30
2023-01-17T16:42:21.367Z,6.50
2023-01-17T16:44:50.076Z,9.20
2023-01-17T16:47:17.817Z,13.20
2023-01-17T16:49:45.758Z,9.60
2023-01-17T16:52:13.381Z,13.57
2023-01-17T16:54:42.743Z,13.60
2023-01-17T16:57:10.537Z,13.47
2023-01-17T16:59:50.183Z,11.23
2023-01-17T17:02:18.801Z,13.10
2023-01-17T17:04:46.512Z,9.90
2023-01-17T17:07:14.510Z,13.07
2023-01-17T17:09:43.869Z,11.93
2023-01-17T17:12:11.546Z,11.40
2023-01-17T17:14:39.639Z,12.87
2023-01-17T17:17:07.812Z,13.17
2023-01-17T17:19:35.600Z,15.03
2023-01-17T17:22:06.508Z,10.37
2023-01-17T17:24:35.799Z,8.00
2023-01-17T17:27:05.856Z,16.13
2023-01-17T17:29:33.964Z,13.70
2023-01-17T17:32:02.073Z,14.43
2023-01-17T17:34:34.150Z,14.50
2023-01-17T17:37:03.945Z,14.47
2023-01-17T17:39:32.225Z,15.33
2023-01-17T17:42:00.272Z,17.27
2023-01-17T17:44:29.401Z,18.47
2023-01-17T17:46:57.415Z,16.80
2023-01-17T17:49:25.178Z,15.07
2023-01-17T17:51:53.199Z,18.83
2023-01-17T17:54:22.052Z,13.80
2023-01-17T17:56:49.888Z,15.63
2023-01-17T17:59:19.470Z,11.97
2023-01-17T18:01:49.067Z,14.43
2023-01-17T18:07:08.877Z,13.43
2023-01-17T18:09:37.000Z,14.50
2023-01-17T18:12:04.917Z,17.00
2023-01-17T18:14:32.982Z,13.40
2023-01-17T18:17:04.487Z,13.03
2023-01-17T18:19:32.247Z,10.33
2023-01-17T18:21:59.968Z,12.97
2023-01-17T18:24:29.824Z,12.70
2023-01-17T18:26:57.922Z,12.67
2023-01-17T18:29:28.180Z,12.20
2023-01-17T18:31:56.734Z,14.20
2023-01-17T18:34:29.000Z,13.53
2023-01-17T18:36:57.785Z,14.37
2023-01-17T18:39:26.758Z,17.10
2023-01-17T18:41:54.918Z,11.50
2023-01-17T18:44:22.835Z,17.67
2023-01-17T18:46:51.395Z,13.07
2023-01-17T18:49:19.561Z,20.83
2023-01-17T18:51:51.158Z,15.60
2023-01-17T18:54:19.534Z,22.33
2023-01-17T18:56:47.270Z,17.83
2023-01-17T18:59:18.153Z,18.80
2023-01-17T19:01:46.127Z,12.00
2023-01-17T19:04:14.955Z,21.30
2023-01-17T19:06:43.749Z,17.90
2023-01-17T19:09:13.933Z,19.40
2023-01-17T19:11:43.005Z,17.40
2023-01-17T19:14:11.471Z,11.90
2023-01-17T19:16:40.942Z,12.67
2023-01-17T19:19:09.506Z,15.77
2023-01-17T19:21:37.387Z,22.60
2023-01-17T19:24:05.406Z,19.27
2023-01-17T19:26:34.643Z,15.17
2023-01-17T19:29:03.564Z,24.53
2023-01-17T19:31:32.081Z,14.33
2023-01-17T19:34:00.558Z,17.17
2023-01-17T19:36:28.954Z,14.10
2023-01-17T19:39:06.328Z,15.53
2023-01-17T19:41:41.618Z,23.50
2023-01-17T19:44:10.207Z,24.87
2023-01-17T19:46:37.986Z,22.07
2023-01-17T19:49:06.944Z,26.67
2023-01-17T19:51:34.700Z,21.80
2023-01-17T19:54:04.563Z,29.83
2023-01-17T19:56:32.957Z,22.60
2023-01-17T19:59:02.882Z,18.80
2023-01-17T20:01:32.113Z,22.07
2023-01-17T20:04:00.851Z,22.60
2023-01-17T20:06:29.975Z,24.40
2023-01-17T20:08:58.146Z,24.97
2023-01-17T20:11:26.678Z,19.93
2023-01-17T20:13:55.286Z,20.93
2023-01-17T20:16:24.980Z,35.80
2023-01-17T20:18:53.161Z,28.30
2023-01-17T20:21:22.271Z,26.60
2023-01-17T20:23:50.422Z,31.00
2023-01-17T20:26:19.106Z,30.80
2023-01-17T20:28:48.001Z,27.27
2023-01-17T20:31:16.708Z,23.53
2023-01-17T20:33:46.887Z,32.43
2023-01-17T20:36:15.911Z,27.60
2023-01-17T20:38:48.534Z,27.07
2023-01-17T20:41:17.668Z,32.23
2023-01-17T20:43:46.179Z,25.87
2023-01-17T20:46:14.498Z,26.03
2023-01-17T20:48:47.243Z,26.60
2023-01-17T20:51:15.743Z,22.97
2023-01-17T20:53:44.264Z,33.60
2023-01-17T20:56:14.615Z,32.93
2023-01-17T20:58:42.340Z,38.73
2023-01-17T21:01:10.894Z,38.40
2023-01-17T21:03:39.253Z,35.10
2023-01-17T21:06:08.943Z,29.67
2023-01-17T21:08:38.029Z,37.77
2023-01-17T21:11:06.905Z,33.73
2023-01-17T21:13:34.629Z,27.00
2023-01-17T21:16:02.323Z,30.37
2023-01-17T21:18:32.178Z,32.03
2023-01-17T21:21:02.846Z,23.70
2023-01-17T21:23:32.666Z,41.03
2023-01-17T21:26:00.447Z,27.70
2023-01-17T21:28:29.624Z,33.33
2023-01-17T21:30:57.997Z,37.50
2023-01-17T21:33:26.871Z,30.27
2023-01-17T21:35:55.618Z,37.50
2023-01-17T21:38:23.571Z,38.47
2023-01-17T21:40:57.446Z,32.93
2023-01-17T21:43:25.145Z,36.00
2023-01-17T21:45:53.386Z,34.80
2023-01-17T21:48:21.697Z,34.80
2023-01-17T21:50:52.399Z,29.67
2023-01-17T21:53:20.135Z,24.27
2023-01-17T21:56:05.600Z,22.33
2023-01-17T21:58:54.528Z,32.20
2023-01-17T22:01:23.757Z,32.67
2023-01-17T22:03:52.113Z,28.57
2023-01-17T22:06:20.023Z,27.53
2023-01-17T22:08:48.048Z,21.27
2023-01-17T22:11:16.692Z,29.83
2023-01-17T22:13:46.244Z,36.77
2023-01-17T22:16:15.325Z,38.70
2023-01-17T22:18:44.170Z,45.57
2023-01-17T22:21:13.141Z,41.47
2023-01-17T22:23:41.990Z,25.10
2023-01-17T22:26:10.597Z,52.00
2023-01-17T22:28:38.786Z,38.40
2023-01-17T22:31:10.950Z,42.47
2023-01-17T22:33:39.372Z,43.93
2023-01-17T22:36:07.882Z,54.87
2023-01-17T22:38:36.630Z,44.87
2023-01-17T22:41:07.772Z,58.37
2023-01-17T22:43:37.419Z,27.53
2023-01-17T22:46:05.665Z,47.87
2023-01-17T22:48:35.361Z,51.13
2023-01-17T22:51:04.087Z,48.73
2023-01-17T22:53:31.784Z,30.93
2023-01-17T22:56:03.666Z,33.10
2023-01-17T22:58:33.359Z,27.30
2023-01-17T23:01:07.397Z,27.23
2023-01-17T23:03:38.506Z,30.50
2023-01-17T23:06:11.319Z,23.50
2023-01-17T23:08:39.914Z,24.40
2023-01-17T23:11:32.714Z,29.90
2023-01-17T23:14:00.410Z,34.90
2023-01-17T23:16:45.830Z,36.07
2023-01-17T23:19:24.296Z,27.80
2023-01-17T23:22:10.293Z,38.13
2023-01-17T23:24:40.417Z,34.90
2023-01-17T23:27:25.711Z,30.00
2023-01-17T23:29:53.624Z,27.33
2023-01-17T23:32:21.235Z,32.60
2023-01-17T23:34:50.531Z,24.07
2023-01-17T23:37:18.727Z,42.83
2023-01-17T23:39:46.439Z,34.27
2023-01-17T23:42:31.938Z,35.23
2023-01-17T23:44:59.612Z,33.30
2023-01-17T23:47:27.213Z,32.90
2023-01-17T23:49:58.536Z,34.47
2023-01-17T23:52:26.190Z,33.23
2023-01-17T23:54:54.220Z,33.03
2023-01-17T23:57:22.490Z,28.23
2023-01-17T23:59:50.152Z,32.37
